createdAt,value
2023-05-16T00:00:35.220Z,72.51
2023-05-16T00:03:05.700Z,72.57
2023-05-16T00:05:33.235Z,72.50
2023-05-16T00:08:00.681Z,71.90
2023-05-16T00:10:29.381Z,72.80
2023-05-16T00:12:57.633Z,84.97
2023-05-16T00:15:26.182Z,86.54
2023-05-16T00:17:53.729Z,90.69
2023-05-16T00:20:23.650Z,89.74
2023-05-16T00:22:51.459Z,92.50
2023-05-16T00:25:18.943Z,92.21
2023-05-16T00:27:46.531Z,93.90
2023-05-16T00:30:14.200Z,94.75
2023-05-16T00:32:42.665Z,84.46
2023-05-16T00:35:11.633Z,82.35
2023-05-16T00:37:40.276Z,82.73
2023-05-16T00:40:08.508Z,83.04
2023-05-16T00:42:36.055Z,83.81
2023-05-16T00:45:04.059Z,82.29
2023-05-16T00:47:31.703Z,84.08
2023-05-16T00:49:59.292Z,86.50
2023-05-16T00:52:26.746Z,84.24
2023-05-16T00:54:54.395Z,80.47
2023-05-16T00:57:21.914Z,82.41
2023-05-16T00:59:50.169Z,83.66
2023-05-16T01:02:18.185Z,84.43
2023-05-16T01:04:48.358Z,85.90
2023-05-16T01:07:15.771Z,86.50
2023-05-16T01:09:43.617Z,85.98
2023-05-16T01:12:41.898Z,86.00
2023-05-16T01:15:13.837Z,82.30
2023-05-16T01:17:41.549Z,79.21
2023-05-16T01:20:15.683Z,75.46
2023-05-16T01:22:49.064Z,77.79
2023-05-16T01:25:44.031Z,79.04
2023-05-16T01:28:16.067Z,80.26
2023-05-16T01:30:43.889Z,79.45
2023-05-16T01:33:11.493Z,73.30
2023-05-16T01:35:56.228Z,75.28
2023-05-16T01:38:31.025Z,70.37
2023-05-16T01:41:06.602Z,71.00
2023-05-16T01:43:37.263Z,72.43
2023-05-16T01:46:13.151Z,75.33
2023-05-16T01:49:26.770Z,74.81
2023-05-16T01:52:11.501Z,75.30
2023-05-16T01:54:45.234Z,75.19
2023-05-16T01:57:13.724Z,78.74
2023-05-16T01:59:43.132Z,79.65
2023-05-16T02:02:10.809Z,81.01
2023-05-16T02:04:38.559Z,82.10
2023-05-16T02:07:06.154Z,84.41
2023-05-16T02:09:34.585Z,84.27
2023-05-16T02:12:02.541Z,83.83
2023-05-16T02:14:30.184Z,83.22
2023-05-16T02:16:58.100Z,78.67
2023-05-16T02:19:25.649Z,77.48
2023-05-16T02:21:52.997Z,79.08
2023-05-16T02:24:20.648Z,79.02
2023-05-16T02:26:47.972Z,77.97
2023-05-16T02:29:16.620Z,78.44
2023-05-16T02:31:44.035Z,80.58
2023-05-16T02:34:11.365Z,82.10
2023-05-16T02:36:38.704Z,79.90
2023-05-16T02:39:06.131Z,75.90
2023-05-16T02:41:34.153Z,72.49
2023-05-16T02:44:01.524Z,76.16
2023-05-16T02:46:31.133Z,76.37
2023-05-16T02:48:58.872Z,77.13
2023-05-16T02:51:28.302Z,78.06
2023-05-16T02:54:00.727Z,78.61
2023-05-16T02:56:28.304Z,78.51
2023-05-16T02:58:56.433Z,77.15
2023-05-16T03:01:24.216Z,78.31
2023-05-16T03:03:51.723Z,82.25
2023-05-16T03:06:19.148Z,83.06
2023-05-16T03:08:47.411Z,84.42
2023-05-16T03:11:16.617Z,85.16
2023-05-16T03:13:44.005Z,86.88
2023-05-16T03:16:11.460Z,88.45
2023-05-16T03:18:41.477Z,88.14
2023-05-16T03:21:08.913Z,84.59
2023-05-16T03:23:36.425Z,85.05
2023-05-16T03:26:03.822Z,86.40
2023-05-16T03:28:31.457Z,87.57
2023-05-16T03:30:59.000Z,87.19
2023-05-16T03:33:26.510Z,82.94
2023-05-16T03:35:53.837Z,78.66
2023-05-16T03:38:21.710Z,78.91
2023-05-16T03:40:49.074Z,78.44
2023-05-16T03:43:16.463Z,78.40
2023-05-16T03:45:44.423Z,79.06
2023-05-16T03:48:11.825Z,77.62
2023-05-16T03:50:41.041Z,76.72
2023-05-16T03:53:09.844Z,76.52
2023-05-16T03:55:37.922Z,78.93
2023-05-16T03:58:05.506Z,77.19
2023-05-16T04:00:34.597Z,77.56
2023-05-16T04:03:02.172Z,79.85
2023-05-16T04:05:29.968Z,79.47
2023-05-16T04:07:57.876Z,81.07
2023-05-16T04:10:25.466Z,79.50
2023-05-16T04:12:52.829Z,79.11
2023-05-16T04:15:20.318Z,78.21
2023-05-16T04:17:48.028Z,78.47
2023-05-16T04:20:15.600Z,78.19
2023-05-16T04:22:43.117Z,77.12
2023-05-16T04:25:11.397Z,76.18
2023-05-16T04:27:39.107Z,75.37
2023-05-16T04:30:06.982Z,75.25
2023-05-16T04:32:36.722Z,74.57
2023-05-16T04:35:07.327Z,74.05
2023-05-16T04:37:35.879Z,72.21
2023-05-16T04:40:03.589Z,72.96
2023-05-16T04:42:32.012Z,71.99
2023-05-16T04:44:59.373Z,69.88
2023-05-16T04:47:26.754Z,68.02
2023-05-16T04:49:54.234Z,64.94
2023-05-16T04:52:21.641Z,65.37
2023-05-16T04:54:52.442Z,65.29
2023-05-16T04:57:19.818Z,61.60
2023-05-16T04:59:47.533Z,61.70
2023-05-16T05:02:14.974Z,59.23
2023-05-16T05:04:42.627Z,58.24
2023-05-16T05:07:09.987Z,56.02
2023-05-16T05:09:37.549Z,59.55
2023-05-16T05:12:05.292Z,62.61
2023-05-16T05:14:32.705Z,63.24
2023-05-16T05:17:00.050Z,63.94
2023-05-16T05:19:27.640Z,64.42
2023-05-16T05:21:55.032Z,60.42
2023-05-16T05:24:22.383Z,60.15
2023-05-16T05:26:49.888Z,58.89
2023-05-16T05:29:17.201Z,58.72
2023-05-16T05:31:44.639Z,60.01
2023-05-16T05:34:12.167Z,59.17
2023-05-16T05:36:39.625Z,57.37
2023-05-16T05:39:07.096Z,53.30
2023-05-16T05:41:35.516Z,53.57
2023-05-16T05:44:03.042Z,54.10
2023-05-16T05:46:31.535Z,54.02
2023-05-16T05:48:59.937Z,54.24
2023-05-16T05:51:27.451Z,53.42
2023-05-16T05:53:55.821Z,53.86
2023-05-16T05:56:24.830Z,50.76
2023-05-16T05:58:52.171Z,50.29
2023-05-16T06:01:21.241Z,48.99
2023-05-16T06:03:48.618Z,47.70
2023-05-16T06:06:15.982Z,46.39
2023-05-16T06:08:43.430Z,47.83
2023-05-16T06:11:10.992Z,46.81
2023-05-16T06:13:38.431Z,45.87
2023-05-16T06:16:07.057Z,46.64
2023-05-16T06:18:36.711Z,45.47
2023-05-16T06:21:04.582Z,43.13
2023-05-16T06:23:31.971Z,44.44
2023-05-16T06:25:59.326Z,44.34
2023-05-16T06:28:26.677Z,42.04
2023-05-16T06:30:54.505Z,42.71
2023-05-16T06:33:22.221Z,39.61
2023-05-16T06:35:50.520Z,38.82
2023-05-16T06:38:19.747Z,39.04
2023-05-16T06:40:47.155Z,39.78
2023-05-16T06:43:14.616Z,38.52
2023-05-16T06:45:42.204Z,38.94
2023-05-16T06:48:09.647Z,38.46
2023-05-16T06:50:37.223Z,38.83
2023-05-16T06:53:06.822Z,38.38
2023-05-16T06:55:34.844Z,38.12
2023-05-16T06:58:02.387Z,38.00
2023-05-16T07:00:29.856Z,37.47
2023-05-16T07:02:57.459Z,37.29
2023-05-16T07:05:25.151Z,37.82
2023-05-16T07:07:52.666Z,37.96
2023-05-16T07:10:20.321Z,36.73
2023-05-16T07:12:48.710Z,36.11
2023-05-16T07:15:16.267Z,35.73
2023-05-16T07:17:44.093Z,35.64
2023-05-16T07:20:13.746Z,35.13
2023-05-16T07:22:41.397Z,36.47
2023-05-16T07:25:12.920Z,36.32
2023-05-16T07:27:42.278Z,34.94
2023-05-16T07:30:11.592Z,35.26
2023-05-16T07:32:40.258Z,34.40
2023-05-16T07:35:08.224Z,35.49
2023-05-16T07:37:36.417Z,33.96
2023-05-16T07:40:07.098Z,33.53
2023-05-16T07:42:34.665Z,33.27
2023-05-16T07:45:02.595Z,32.68
2023-05-16T07:47:30.556Z,34.25
2023-05-16T07:49:58.129Z,34.11
2023-05-16T07:52:25.623Z,33.81
2023-05-16T07:54:53.226Z,33.34
2023-05-16T07:57:23.239Z,33.34
2023-05-16T07:59:52.744Z,32.23
2023-05-16T08:02:21.016Z,32.09
2023-05-16T08:04:49.150Z,31.10
2023-05-16T08:07:16.863Z,32.82
2023-05-16T08:09:44.385Z,31.67
2023-05-16T08:12:11.821Z,30.53
2023-05-16T08:14:39.455Z,29.75
2023-05-16T08:17:06.896Z,28.69
2023-05-16T08:19:37.832Z,29.62
2023-05-16T08:22:08.076Z,29.22
2023-05-16T08:24:36.371Z,29.54
2023-05-16T08:27:03.888Z,30.10
2023-05-16T08:29:32.004Z,29.10
2023-05-16T08:31:59.713Z,28.74
2023-05-16T08:34:27.197Z,31.09
2023-05-16T08:36:54.915Z,28.94
2023-05-16T08:39:22.278Z,29.63
2023-05-16T08:41:50.134Z,29.03
2023-05-16T08:44:21.934Z,28.13
2023-05-16T08:46:54.009Z,28.47
2023-05-16T08:49:21.812Z,29.09
2023-05-16T08:51:52.252Z,29.68
2023-05-16T08:54:22.032Z,29.00
2023-05-16T08:56:50.929Z,28.87
2023-05-16T08:59:19.406Z,29.60
2023-05-16T09:01:47.655Z,29.56
2023-05-16T09:04:16.585Z,28.88
2023-05-16T09:06:44.152Z,27.58
2023-05-16T09:09:13.096Z,27.35
2023-05-16T09:11:42.527Z,28.54
2023-05-16T09:14:09.908Z,29.24
2023-05-16T09:16:37.345Z,29.66
2023-05-16T09:19:04.996Z,29.28
2023-05-16T09:21:36.065Z,28.18
2023-05-16T09:24:07.964Z,28.46
2023-05-16T09:26:38.174Z,29.02
2023-05-16T09:29:13.003Z,29.58
2023-05-16T09:31:41.205Z,29.59
2023-05-16T09:34:09.476Z,29.43
2023-05-16T09:36:37.747Z,29.86
2023-05-16T09:39:08.233Z,29.21
2023-05-16T09:41:36.584Z,29.15
2023-05-16T09:44:06.540Z,28.95
2023-05-16T09:46:37.499Z,28.32
2023-05-16T09:49:05.027Z,28.90
2023-05-16T09:51:33.784Z,28.40
2023-05-16T09:54:01.298Z,28.59
2023-05-16T09:56:30.252Z,29.03
2023-05-16T09:58:57.763Z,28.79
2023-05-16T10:01:26.060Z,29.39
2023-05-16T10:03:53.787Z,28.53
2023-05-16T10:06:22.979Z,28.46
2023-05-16T10:08:51.176Z,29.35
2023-05-16T10:11:19.410Z,28.83
2023-05-16T10:13:53.325Z,28.29
2023-05-16T10:16:23.985Z,29.20
2023-05-16T10:18:53.251Z,28.81
2023-05-16T10:21:23.603Z,29.05
2023-05-16T10:23:53.418Z,28.74
2023-05-16T10:26:22.698Z,28.83
2023-05-16T10:28:51.876Z,29.51
2023-05-16T10:31:21.523Z,29.10
2023-05-16T10:33:49.122Z,27.66
2023-05-16T10:36:17.339Z,28.12
2023-05-16T10:38:46.513Z,27.88
2023-05-16T10:41:14.470Z,28.52
2023-05-16T10:43:46.394Z,27.90
2023-05-16T10:46:14.982Z,28.41
2023-05-16T10:48:42.538Z,28.83
2023-05-16T10:51:36.718Z,29.47
2023-05-16T10:54:15.701Z,27.63
2023-05-16T10:56:43.661Z,27.50
2023-05-16T10:59:27.269Z,27.21
2023-05-16T11:01:56.542Z,28.46
2023-05-16T11:04:24.220Z,29.26
2023-05-16T11:06:57.730Z,28.89
2023-05-16T11:09:27.896Z,29.54
2023-05-16T11:12:01.144Z,29.03
2023-05-16T11:14:36.227Z,30.88
2023-05-16T11:17:20.781Z,28.11
2023-05-16T11:19:59.750Z,28.71
2023-05-16T11:22:34.406Z,28.01
2023-05-16T11:25:07.343Z,28.31
2023-05-16T11:27:43.422Z,28.59
2023-05-16T11:30:10.803Z,27.85
2023-05-16T11:32:40.238Z,28.15
2023-05-16T11:35:12.151Z,28.46
2023-05-16T11:37:42.220Z,28.17
2023-05-16T11:40:12.390Z,28.47
2023-05-16T11:42:44.974Z,29.03
2023-05-16T11:45:16.236Z,28.80
2023-05-16T11:47:45.782Z,28.49
2023-05-16T11:50:15.810Z,28.38
2023-05-16T11:52:47.593Z,28.05
2023-05-16T11:55:28.209Z,28.58
2023-05-16T11:58:01.572Z,28.21
2023-05-16T12:00:29.224Z,29.19
2023-05-16T12:03:03.216Z,29.86
2023-05-16T12:05:32.942Z,29.87
2023-05-16T12:08:02.864Z,30.09
2023-05-16T12:10:34.406Z,29.49
2023-05-16T12:13:03.641Z,28.77
2023-05-16T12:15:32.406Z,28.73
2023-05-16T12:18:00.435Z,29.21
2023-05-16T12:20:27.924Z,29.74
2023-05-16T12:22:58.565Z,29.85
2023-05-16T12:25:32.848Z,29.67
2023-05-16T12:28:01.971Z,29.57
2023-05-16T12:30:32.234Z,29.71
2023-05-16T12:33:20.343Z,30.00
2023-05-16T12:35:48.087Z,30.33
2023-05-16T12:38:17.516Z,30.12
2023-05-16T12:40:45.744Z,30.63
2023-05-16T12:43:23.236Z,31.67
2023-05-16T12:45:55.959Z,32.84
2023-05-16T12:48:30.593Z,34.34
2023-05-16T12:50:58.349Z,30.88
2023-05-16T12:53:25.900Z,32.13
2023-05-16T12:55:53.304Z,31.68
2023-05-16T12:58:21.242Z,32.19
2023-05-16T13:00:48.790Z,31.13
2023-05-16T13:03:16.437Z,31.20
2023-05-16T13:05:44.013Z,31.48
2023-05-16T13:08:11.486Z,31.43
2023-05-16T13:10:39.059Z,30.90
2023-05-16T13:13:07.643Z,31.00
2023-05-16T13:15:35.265Z,31.29
2023-05-16T13:18:02.864Z,30.92
2023-05-16T13:20:30.926Z,31.69
2023-05-16T13:22:58.301Z,31.64
2023-05-16T13:25:25.944Z,32.16
2023-05-16T13:27:53.565Z,33.76
2023-05-16T13:30:21.197Z,33.02
2023-05-16T13:32:48.727Z,32.40
2023-05-16T13:35:16.190Z,32.59
2023-05-16T13:37:43.722Z,32.77
2023-05-16T13:40:11.508Z,33.01
2023-05-16T13:42:39.290Z,32.64
2023-05-16T13:45:08.166Z,34.12
2023-05-16T13:47:36.941Z,34.26
2023-05-16T13:50:09.332Z,33.97
2023-05-16T13:52:38.365Z,33.76
2023-05-16T13:55:06.898Z,35.21
2023-05-16T13:57:35.441Z,35.28
2023-05-16T14:02:43.577Z,35.81
2023-05-16T14:05:10.999Z,36.43
2023-05-16T14:07:39.632Z,36.79
2023-05-16T14:10:08.168Z,36.58
2023-05-16T14:12:36.391Z,37.35
2023-05-16T14:15:05.152Z,38.96
2023-05-16T14:17:32.921Z,38.56
2023-05-16T14:20:00.645Z,38.80
2023-05-16T14:22:28.740Z,39.05
2023-05-16T14:24:56.218Z,38.79
2023-05-16T14:27:23.668Z,38.64
2023-05-16T14:29:52.683Z,38.78
2023-05-16T14:32:20.158Z,39.21
2023-05-16T14:34:47.669Z,38.84
2023-05-16T14:37:16.363Z,39.51
2023-05-16T14:39:46.655Z,40.21
2023-05-16T14:42:14.121Z,40.24
2023-05-16T14:44:41.467Z,42.01
2023-05-16T14:47:09.061Z,42.15
2023-05-16T14:49:36.890Z,42.23
2023-05-16T14:52:04.634Z,42.59
2023-05-16T14:54:32.445Z,41.33
2023-05-16T14:57:00.301Z,41.64
2023-05-16T14:59:28.228Z,42.72
2023-05-16T15:01:55.676Z,42.67
2023-05-16T15:04:23.130Z,43.80
2023-05-16T15:06:50.738Z,44.56
2023-05-16T15:09:19.205Z,45.66
2023-05-16T15:11:47.106Z,44.15
2023-05-16T15:14:14.614Z,46.42
2023-05-16T15:16:42.551Z,46.37
2023-05-16T15:19:10.088Z,48.48
2023-05-16T15:21:37.534Z,46.45
2023-05-16T15:24:05.299Z,49.28
2023-05-16T15:26:32.871Z,49.96
2023-05-16T15:29:00.242Z,52.39
2023-05-16T15:31:27.891Z,51.99
2023-05-16T15:33:55.445Z,52.30
2023-05-16T15:36:22.901Z,50.73
2023-05-16T15:38:50.361Z,50.86
2023-05-16T15:41:32.104Z,52.15
2023-05-16T15:44:05.598Z,53.33
2023-05-16T15:46:33.417Z,52.83
2023-05-16T15:49:01.164Z,54.16
2023-05-16T15:51:28.657Z,53.94
2023-05-16T15:53:56.071Z,54.53
2023-05-16T15:56:23.709Z,54.95
2023-05-16T15:58:53.173Z,56.71
2023-05-16T16:01:20.616Z,57.60
2023-05-16T16:03:48.152Z,58.35
2023-05-16T16:06:15.704Z,58.82
2023-05-16T16:08:43.319Z,58.64
2023-05-16T16:11:10.930Z,58.05
2023-05-16T16:13:38.527Z,58.33
2023-05-16T16:16:06.667Z,58.01
2023-05-16T16:18:34.920Z,57.00
2023-05-16T16:21:02.406Z,55.33
2023-05-16T16:23:31.662Z,54.33
2023-05-16T16:25:59.302Z,54.62
2023-05-16T16:28:27.135Z,55.45
2023-05-16T16:30:54.841Z,52.89
2023-05-16T16:33:22.321Z,54.53
2023-05-16T16:35:51.919Z,53.25
2023-05-16T16:38:19.863Z,49.28
2023-05-16T16:40:47.267Z,47.48
2023-05-16T16:43:15.532Z,46.34
2023-05-16T16:45:43.215Z,45.55
2023-05-16T16:48:11.794Z,44.95
2023-05-16T16:50:40.824Z,44.68
2023-05-16T16:53:08.544Z,43.72
2023-05-16T16:55:38.260Z,43.41
2023-05-16T16:58:07.752Z,43.29
2023-05-16T17:00:35.213Z,43.81
2023-05-16T17:03:04.964Z,44.04
2023-05-16T17:05:32.648Z,44.20
2023-05-16T17:08:00.083Z,44.86
2023-05-16T17:10:27.504Z,44.61
2023-05-16T17:12:54.945Z,44.68
2023-05-16T17:15:22.411Z,44.01
2023-05-16T17:17:50.115Z,44.47
2023-05-16T17:20:17.619Z,44.09
2023-05-16T17:22:46.100Z,43.86
2023-05-16T17:25:13.498Z,44.46
2023-05-16T17:27:41.093Z,43.94
2023-05-16T17:30:10.573Z,43.56
2023-05-16T17:32:39.859Z,43.28
2023-05-16T17:35:07.845Z,43.56
2023-05-16T17:37:35.317Z,43.35
2023-05-16T17:40:02.857Z,41.86
2023-05-16T17:42:30.595Z,41.48
2023-05-16T17:44:58.017Z,41.50
2023-05-16T17:47:25.853Z,42.03
2023-05-16T17:49:53.277Z,42.84
2023-05-16T17:52:22.227Z,44.83
2023-05-16T17:54:49.584Z,45.75
2023-05-16T17:57:17.047Z,46.82
2023-05-16T17:59:45.558Z,47.62
2023-05-16T18:02:15.612Z,48.01
2023-05-16T18:04:43.343Z,47.09
2023-05-16T18:07:10.796Z,47.47
2023-05-16T18:09:38.683Z,47.41
2023-05-16T18:12:07.159Z,47.72
2023-05-16T18:14:35.275Z,47.70
2023-05-16T18:17:03.755Z,47.20
2023-05-16T18:19:32.155Z,47.19
2023-05-16T18:22:00.191Z,47.10
2023-05-16T18:24:27.783Z,47.20
2023-05-16T18:26:55.274Z,46.88
2023-05-16T18:29:23.648Z,47.67
2023-05-16T18:31:51.205Z,47.57
2023-05-16T18:34:18.846Z,47.60
2023-05-16T18:36:46.496Z,48.02
2023-05-16T18:39:14.214Z,48.57
2023-05-16T18:41:41.738Z,48.56
2023-05-16T18:44:09.287Z,48.61
2023-05-16T18:46:37.026Z,48.52
2023-05-16T18:49:04.483Z,48.43
2023-05-16T18:51:32.352Z,48.90
2023-05-16T18:53:59.911Z,49.69
2023-05-16T18:56:27.573Z,50.13
2023-05-16T18:58:55.122Z,49.47
2023-05-16T19:01:22.809Z,49.12
2023-05-16T19:03:50.458Z,49.64
2023-05-16T19:06:17.910Z,51.64
2023-05-16T19:08:47.954Z,49.50
2023-05-16T19:11:18.336Z,49.95
2023-05-16T19:13:46.326Z,50.17
2023-05-16T19:16:14.076Z,50.17
2023-05-16T19:18:41.769Z,49.72
2023-05-16T19:21:11.053Z,50.10
2023-05-16T19:23:39.317Z,49.68
2023-05-16T19:26:07.033Z,49.44
2023-05-16T19:28:34.926Z,49.72
2023-05-16T19:31:02.367Z,50.16
2023-05-16T19:33:29.880Z,50.43
2023-05-16T19:35:58.666Z,49.45
2023-05-16T19:38:26.658Z,49.27
2023-05-16T19:40:54.724Z,47.37
2023-05-16T19:43:22.131Z,47.13
2023-05-16T19:45:49.727Z,47.63
2023-05-16T19:48:17.868Z,47.83
2023-05-16T19:50:46.202Z,47.92
2023-05-16T19:53:13.566Z,48.13
2023-05-16T19:55:41.187Z,47.90
2023-05-16T19:58:08.789Z,47.93
2023-05-16T20:00:36.261Z,47.94
2023-05-16T20:03:03.805Z,48.17
2023-05-16T20:05:31.565Z,49.51
2023-05-16T20:07:59.357Z,49.52
2023-05-16T20:10:26.806Z,48.68
2023-05-16T20:12:54.643Z,48.82
2023-05-16T20:15:22.124Z,48.91
2023-05-16T20:17:49.598Z,48.88
2023-05-16T20:20:17.449Z,48.26
2023-05-16T20:22:45.044Z,48.06
2023-05-16T20:25:12.421Z,48.07
2023-05-16T20:27:40.193Z,48.26
2023-05-16T20:30:08.181Z,48.03
2023-05-16T20:32:36.470Z,48.22
2023-05-16T20:35:05.036Z,48.10
2023-05-16T20:37:32.508Z,47.43
2023-05-16T20:39:59.996Z,47.64
2023-05-16T20:42:27.426Z,47.81
2023-05-16T20:44:54.919Z,48.00
2023-05-16T20:47:22.390Z,48.21
2023-05-16T20:49:49.912Z,47.53
2023-05-16T20:52:17.804Z,47.34
2023-05-16T20:54:46.029Z,47.55
2023-05-16T20:57:13.385Z,48.12
2023-05-16T20:59:41.005Z,47.41
2023-05-16T21:02:11.789Z,48.44
2023-05-16T21:04:39.793Z,48.56
2023-05-16T21:07:08.558Z,48.47
2023-05-16T21:09:37.918Z,48.64
2023-05-16T21:12:05.916Z,48.83
2023-05-16T21:14:33.377Z,48.64
2023-05-16T21:17:00.842Z,48.80
2023-05-16T21:19:33.972Z,48.67
2023-05-16T21:22:04.112Z,49.08
2023-05-16T21:24:35.733Z,49.20
2023-05-16T21:27:04.287Z,49.33
2023-05-16T21:29:31.729Z,49.49
2023-05-16T21:31:59.156Z,49.64
2023-05-16T21:34:26.654Z,49.71
2023-05-16T21:36:54.255Z,49.73
2023-05-16T21:39:21.714Z,49.74
2023-05-16T21:41:49.151Z,49.90
2023-05-16T21:44:18.600Z,49.93
2023-05-16T21:46:46.192Z,50.66
2023-05-16T21:49:13.738Z,51.00
2023-05-16T21:51:42.380Z,50.85
2023-05-16T21:54:09.828Z,50.74
2023-05-16T21:56:37.382Z,51.85
2023-05-16T21:59:04.906Z,54.22
2023-05-16T22:01:32.786Z,55.67
2023-05-16T22:04:00.467Z,56.97
2023-05-16T22:06:27.947Z,58.04
2023-05-16T22:08:55.906Z,59.23
2023-05-16T22:11:23.484Z,59.57
2023-05-16T22:13:51.394Z,60.26
2023-05-16T22:16:18.903Z,60.64
2023-05-16T22:18:46.728Z,61.38
2023-05-16T22:21:16.372Z,60.32
2023-05-16T22:23:43.856Z,59.56
2023-05-16T22:26:11.503Z,59.32
2023-05-16T22:28:38.954Z,59.18
2023-05-16T22:31:06.562Z,57.91
2023-05-16T22:33:34.066Z,59.01
2023-05-16T22:36:03.321Z,59.79
2023-05-16T22:38:32.045Z,59.22
2023-05-16T22:40:59.517Z,59.71
2023-05-16T22:43:26.993Z,59.69
2023-05-16T22:45:54.528Z,60.21
2023-05-16T22:48:22.195Z,60.59
2023-05-16T22:50:49.672Z,61.51
2023-05-16T22:53:17.098Z,61.56
2023-05-16T22:55:44.457Z,62.01
2023-05-16T22:58:11.842Z,62.53
2023-05-16T23:00:39.312Z,61.71
2023-05-16T23:03:06.748Z,62.44
2023-05-16T23:05:34.986Z,62.60
2023-05-16T23:08:03.350Z,62.57
2023-05-16T23:10:31.607Z,62.88
2023-05-16T23:12:59.234Z,62.69
2023-05-16T23:15:26.917Z,63.02
2023-05-16T23:17:54.821Z,63.16
2023-05-16T23:20:22.624Z,63.74
2023-05-16T23:22:50.087Z,63.40
2023-05-16T23:25:17.555Z,64.32
2023-05-16T23:27:45.064Z,65.07
2023-05-16T23:30:12.891Z,64.55
2023-05-16T23:32:40.691Z,64.70
2023-05-16T23:35:08.636Z,65.45
2023-05-16T23:37:36.284Z,65.50
2023-05-16T23:40:03.940Z,65.41
2023-05-16T23:42:31.877Z,66.37
2023-05-16T23:45:00.215Z,66.14
2023-05-16T23:47:27.806Z,66.78
2023-05-16T23:49:55.344Z,67.19
2023-05-16T23:52:22.837Z,67.17
2023-05-16T23:54:50.349Z,67.09
2023-05-16T23:57:17.806Z,66.56
2023-05-16T23:59:45.261Z,66.76
